createdAt,value
2023-05-19T00:00:20.624Z,9.3
2023-05-19T00:01:34.920Z,9.3
2023-05-19T00:02:49.189Z,9.3
2023-05-19T00:04:03.596Z,9.3
2023-05-19T00:05:17.930Z,9.3
2023-05-19T00:06:32.200Z,9.3
2023-05-19T00:07:46.489Z,9.3
2023-05-19T00:09:00.899Z,9.3
2023-05-19T00:10:15.210Z,9.3
2023-05-19T00:11:29.507Z,9.3
2023-05-19T00:12:43.787Z,9.3
2023-05-19T00:13:58.182Z,9.3
2023-05-19T00:15:12.504Z,9.4
2023-05-19T00:16:26.780Z,9.5
2023-05-19T00:17:41.184Z,9.5
2023-05-19T00:18:55.600Z,9.5
2023-05-19T00:20:09.916Z,9.6
2023-05-19T00:21:24.201Z,9.6
2023-05-19T00:22:38.474Z,9.6
2023-05-19T00:23:52.888Z,9.5
2023-05-19T00:25:07.216Z,9.5
2023-05-19T00:26:21.497Z,9.4
2023-05-19T00:27:35.774Z,9.4
2023-05-19T00:28:50.184Z,9.3
2023-05-19T00:30:04.516Z,9.3
2023-05-19T00:31:18.793Z,9.2
2023-05-19T00:32:33.068Z,9.1
2023-05-19T00:33:47.485Z,9
2023-05-19T00:35:01.795Z,9
2023-05-19T00:36:16.088Z,8.9
2023-05-19T00:37:30.367Z,8.9
2023-05-19T00:38:44.771Z,8.9
2023-05-19T00:39:59.090Z,8.9
2023-05-19T00:41:13.365Z,8.9
2023-05-19T00:42:27.657Z,8.9
2023-05-19T00:43:42.057Z,8.9
2023-05-19T00:44:56.383Z,8.9
2023-05-19T00:46:10.665Z,8.8
2023-05-19T00:47:25.062Z,8.8
2023-05-19T00:48:39.473Z,8.8
2023-05-19T00:49:53.805Z,8.9
2023-05-19T00:51:08.078Z,9
2023-05-19T00:52:22.360Z,9
2023-05-19T00:53:36.764Z,9.1
2023-05-19T00:54:51.087Z,9.1
2023-05-19T00:56:05.372Z,9.1
2023-05-19T00:57:19.641Z,9.2
2023-05-19T00:58:34.056Z,9.2
2023-05-19T00:59:48.391Z,9.2
2023-05-19T01:01:02.660Z,9.2
2023-05-19T01:02:16.952Z,9.2
2023-05-19T01:03:31.355Z,9.1
2023-05-19T01:04:45.664Z,9.1
2023-05-19T01:05:59.953Z,9.1
2023-05-19T01:07:14.351Z,9
2023-05-19T01:08:28.773Z,8.9
2023-05-19T01:09:43.096Z,8.9
2023-05-19T01:10:57.373Z,8.9
2023-05-19T01:12:11.650Z,8.9
2023-05-19T01:13:26.054Z,8.8
2023-05-19T01:14:40.379Z,8.8
2023-05-19T01:15:54.667Z,8.8
2023-05-19T01:17:08.942Z,8.7
2023-05-19T01:18:23.345Z,8.7
2023-05-19T01:19:37.663Z,8.7
2023-05-19T01:20:51.956Z,8.6
2023-05-19T01:22:06.229Z,8.6
2023-05-19T01:23:20.636Z,8.6
2023-05-19T01:24:34.960Z,8.5
2023-05-19T01:25:49.235Z,8.5
2023-05-19T01:27:03.516Z,8.4
2023-05-19T01:28:17.936Z,8.4
2023-05-19T01:29:32.247Z,8.5
2023-05-19T01:30:46.545Z,8.4
2023-05-19T01:32:00.942Z,8.4
2023-05-19T01:33:15.353Z,8.4
2023-05-19T01:34:29.665Z,8.4
2023-05-19T01:35:43.944Z,8.4
2023-05-19T01:36:58.222Z,8.3
2023-05-19T01:38:12.635Z,8.3
2023-05-19T01:39:26.957Z,8.3
2023-05-19T01:40:41.252Z,8.3
2023-05-19T01:41:55.517Z,8.2
2023-05-19T01:43:09.933Z,8.2
2023-05-19T01:44:24.257Z,8.2
2023-05-19T01:45:38.536Z,8.3
2023-05-19T01:46:52.811Z,8.4
2023-05-19T01:48:07.220Z,8.3
2023-05-19T01:49:21.556Z,8.4
2023-05-19T01:50:35.951Z,8.4
2023-05-19T01:51:50.277Z,8.4
2023-05-19T01:53:04.551Z,8.4
2023-05-19T01:54:18.968Z,8.3
2023-05-19T01:55:33.296Z,8.2
2023-05-19T01:56:47.569Z,8.2
2023-05-19T01:58:01.839Z,8.2
2023-05-19T01:59:16.263Z,8.1
2023-05-19T02:00:30.586Z,8.1
2023-05-19T02:01:44.861Z,8
2023-05-19T02:02:59.132Z,8
2023-05-19T02:04:13.540Z,8
2023-05-19T02:05:27.876Z,8
2023-05-19T02:06:42.157Z,7.9
2023-05-19T02:07:56.436Z,7.8
2023-05-19T02:09:10.844Z,7.7
2023-05-19T02:10:25.171Z,7.6
2023-05-19T02:11:39.451Z,7.5
2023-05-19T02:12:53.732Z,7.5
2023-05-19T02:14:08.135Z,7.5
2023-05-19T02:15:22.453Z,7.6
2023-05-19T02:16:36.869Z,7.6
2023-05-19T02:17:51.184Z,7.6
2023-05-19T02:19:05.458Z,7.6
2023-05-19T02:20:19.870Z,7.6
2023-05-19T02:21:34.204Z,7.6
2023-05-19T02:22:48.481Z,7.6
2023-05-19T02:24:02.749Z,7.5
2023-05-19T02:25:17.163Z,7.5
2023-05-19T02:26:31.481Z,7.4
2023-05-19T02:27:45.771Z,7.4
2023-05-19T02:29:00.044Z,7.4
2023-05-19T02:30:14.454Z,7.5
2023-05-19T02:31:28.788Z,7.5
2023-05-19T02:32:43.073Z,7.6
2023-05-19T02:33:57.349Z,7.5
2023-05-19T02:35:11.751Z,7.5
2023-05-19T02:36:26.086Z,7.5
2023-05-19T02:37:40.357Z,7.4
2023-05-19T02:38:54.707Z,7.4
2023-05-19T02:40:09.122Z,7.4
2023-05-19T02:41:23.434Z,7.5
2023-05-19T02:42:37.725Z,7.5
2023-05-19T02:43:51.998Z,7.5
2023-05-19T02:45:06.411Z,7.5
2023-05-19T02:46:20.657Z,7.5
2023-05-19T02:47:34.876Z,7.6
2023-05-19T02:48:49.108Z,7.6
2023-05-19T02:50:03.335Z,7.6
2023-05-19T02:51:17.635Z,7.7
2023-05-19T02:52:31.950Z,7.7
2023-05-19T02:53:46.185Z,7.7
2023-05-19T02:55:00.417Z,7.7
2023-05-19T02:56:14.642Z,7.7
2023-05-19T02:57:28.942Z,7.6
2023-05-19T02:58:43.181Z,7.6
2023-05-19T02:59:57.414Z,7.6
2023-05-19T03:01:11.635Z,7.4
2023-05-19T03:02:25.849Z,7.3
2023-05-19T03:03:40.154Z,7.3
2023-05-19T03:04:54.402Z,7.2
2023-05-19T03:06:08.633Z,7.1
2023-05-19T03:07:22.856Z,7.1
2023-05-19T03:08:37.209Z,7.1
2023-05-19T03:09:51.495Z,7.1
2023-05-19T03:11:05.746Z,7.2
2023-05-19T03:12:19.979Z,7.2
2023-05-19T03:13:34.205Z,7.2
2023-05-19T03:14:48.418Z,7.2
2023-05-19T03:16:02.733Z,7.2
2023-05-19T03:17:16.959Z,7.2
2023-05-19T03:18:31.195Z,7.3
2023-05-19T03:19:45.409Z,7.3
2023-05-19T03:20:59.654Z,7.3
2023-05-19T03:22:13.953Z,7.3
2023-05-19T03:23:28.186Z,7.3
2023-05-19T03:24:42.412Z,7.3
2023-05-19T03:25:56.631Z,7.3
2023-05-19T03:27:10.862Z,7.2
2023-05-19T03:28:25.166Z,7.2
2023-05-19T03:29:39.400Z,7.2
2023-05-19T03:30:53.640Z,7.2
2023-05-19T03:32:07.859Z,7.3
2023-05-19T03:33:22.078Z,7.2
2023-05-19T03:34:36.385Z,7.2
2023-05-19T03:35:50.628Z,7.1
2023-05-19T03:37:04.847Z,7
2023-05-19T03:38:19.077Z,6.9
2023-05-19T03:39:33.301Z,6.9
2023-05-19T03:40:47.600Z,7
2023-05-19T03:42:01.847Z,6.9
2023-05-19T03:43:16.198Z,6.9
2023-05-19T03:44:30.431Z,6.9
2023-05-19T03:45:44.652Z,6.8
2023-05-19T03:46:58.954Z,6.9
2023-05-19T03:48:13.203Z,7
2023-05-19T03:49:27.416Z,7
2023-05-19T03:50:41.644Z,7.1
2023-05-19T03:51:55.886Z,7.2
2023-05-19T03:53:10.174Z,7.2
2023-05-19T03:54:24.420Z,7.2
2023-05-19T03:55:38.653Z,7.2
2023-05-19T03:56:52.880Z,7.2
2023-05-19T03:58:07.103Z,7.2
2023-05-19T03:59:21.402Z,7.2
2023-05-19T04:00:35.644Z,7.2
2023-05-19T04:01:49.860Z,7.3
2023-05-19T04:03:04.223Z,7.4
2023-05-19T04:04:18.435Z,7.4
2023-05-19T04:05:32.745Z,7.4
2023-05-19T04:06:46.994Z,7.5
2023-05-19T04:08:01.220Z,7.5
2023-05-19T04:09:15.435Z,7.5
2023-05-19T04:10:29.670Z,7.5
2023-05-19T04:11:43.961Z,7.4
2023-05-19T04:12:58.216Z,7.4
2023-05-19T04:14:12.424Z,7.5
2023-05-19T04:15:26.663Z,7.5
2023-05-19T04:16:40.890Z,7.5
2023-05-19T04:17:55.195Z,7.5
2023-05-19T04:19:09.437Z,7.5
2023-05-19T04:20:23.648Z,7.5
2023-05-19T04:21:37.890Z,7.6
2023-05-19T04:22:52.102Z,7.6
2023-05-19T04:24:06.411Z,7.7
2023-05-19T04:25:20.658Z,7.7
2023-05-19T04:26:34.882Z,7.7
2023-05-19T04:27:49.095Z,7.7
2023-05-19T04:29:03.323Z,7.7
2023-05-19T04:30:17.632Z,7.7
2023-05-19T04:31:31.870Z,7.8
2023-05-19T04:32:46.101Z,7.8
2023-05-19T04:34:00.322Z,7.8
2023-05-19T04:35:14.679Z,7.8
2023-05-19T04:36:28.967Z,7.9
2023-05-19T04:37:43.210Z,7.9
2023-05-19T04:38:57.440Z,7.9
2023-05-19T04:40:11.666Z,7.9
2023-05-19T04:41:25.906Z,8
2023-05-19T04:42:40.209Z,8
2023-05-19T04:43:54.444Z,8.1
2023-05-19T04:45:08.668Z,8.2
2023-05-19T04:46:22.895Z,8.2
2023-05-19T04:47:37.116Z,8.3
2023-05-19T04:48:51.418Z,8.3
2023-05-19T04:50:05.656Z,8.4
2023-05-19T04:51:19.891Z,8.5
2023-05-19T04:52:34.107Z,8.5
2023-05-19T04:53:48.347Z,8.5
2023-05-19T04:55:02.646Z,8.6
2023-05-19T04:56:16.885Z,8.6
2023-05-19T04:57:31.107Z,8.6
2023-05-19T04:58:45.338Z,8.7
2023-05-19T04:59:59.571Z,8.8
2023-05-19T05:01:13.875Z,8.9
2023-05-19T05:02:28.097Z,9
2023-05-19T05:03:42.335Z,9
2023-05-19T05:04:56.684Z,9.1
2023-05-19T05:06:10.905Z,9.1
2023-05-19T05:07:25.218Z,9.2
2023-05-19T05:08:39.459Z,9.3
2023-05-19T05:09:53.672Z,9.3
2023-05-19T05:11:07.913Z,9.4
2023-05-19T05:12:22.134Z,9.5
2023-05-19T05:13:36.423Z,9.6
2023-05-19T05:14:50.681Z,9.7
2023-05-19T05:16:04.903Z,9.8
2023-05-19T05:17:19.133Z,9.8
2023-05-19T05:18:33.350Z,9.9
2023-05-19T05:19:47.656Z,9.9
2023-05-19T05:21:01.891Z,10
2023-05-19T05:22:16.237Z,10
2023-05-19T05:23:30.464Z,10.1
2023-05-19T05:24:44.697Z,10.1
2023-05-19T05:25:58.987Z,10.2
2023-05-19T05:27:13.247Z,10.3
2023-05-19T05:28:27.465Z,10.4
2023-05-19T05:29:41.690Z,10.5
2023-05-19T05:30:55.911Z,10.6
2023-05-19T05:32:10.208Z,10.7
2023-05-19T05:33:24.457Z,10.8
2023-05-19T05:34:38.687Z,10.9
2023-05-19T05:35:52.914Z,11
2023-05-19T05:37:07.148Z,11
2023-05-19T05:38:21.445Z,11.1
2023-05-19T05:39:35.684Z,11.1
2023-05-19T05:40:49.914Z,11.2
2023-05-19T05:42:04.140Z,11.2
2023-05-19T05:43:18.361Z,11.3
2023-05-19T05:44:32.656Z,11.3
2023-05-19T05:45:46.907Z,11.3
2023-05-19T05:47:01.120Z,11.4
2023-05-19T05:48:15.363Z,11.5
2023-05-19T05:50:44.004Z,11.7
2023-05-19T05:51:58.253Z,11.8
2023-05-19T05:53:12.475Z,11.8
2023-05-19T05:54:26.705Z,11.8
2023-05-19T05:55:40.931Z,11.9
2023-05-19T05:56:55.230Z,11.9
2023-05-19T05:58:09.475Z,12
2023-05-19T05:59:23.692Z,12.2
2023-05-19T06:00:37.926Z,12.2
2023-05-19T06:01:52.147Z,12.3
2023-05-19T06:03:06.450Z,12.3
2023-05-19T06:04:20.700Z,12.5
2023-05-19T06:05:34.925Z,12.5
2023-05-19T06:06:49.265Z,12.6
2023-05-19T06:08:03.485Z,12.7
2023-05-19T06:09:17.795Z,12.9
2023-05-19T06:10:32.024Z,13
2023-05-19T06:11:46.251Z,13.1
2023-05-19T06:13:00.481Z,13.3
2023-05-19T06:14:14.703Z,13.5
2023-05-19T06:15:29.020Z,13.5
2023-05-19T06:16:43.251Z,13.6
2023-05-19T06:17:57.478Z,13.8
2023-05-19T06:19:11.716Z,14
2023-05-19T06:20:25.936Z,14.2
2023-05-19T06:21:40.243Z,14.3
2023-05-19T06:22:54.470Z,14.3
2023-05-19T06:24:08.833Z,14.2
2023-05-19T06:25:23.000Z,14.4
2023-05-19T06:26:37.285Z,14.7
2023-05-19T06:27:51.585Z,14.8
2023-05-19T06:29:05.819Z,15.1
2023-05-19T06:30:20.051Z,15.4
2023-05-19T06:31:34.274Z,15.8
2023-05-19T06:32:48.494Z,15.5
2023-05-19T06:34:02.793Z,15.5
2023-05-19T06:35:17.045Z,15.9
2023-05-19T06:36:31.265Z,16.3
2023-05-19T06:37:45.496Z,16.5
2023-05-19T06:38:59.708Z,16.4
2023-05-19T06:40:14.012Z,16.3
2023-05-19T06:41:28.262Z,16
2023-05-19T06:43:56.703Z,16.7
2023-05-19T06:45:10.939Z,17.1
2023-05-19T06:46:25.242Z,17.6
2023-05-19T06:47:39.489Z,18.1
2023-05-19T06:48:53.716Z,18.2
2023-05-19T06:50:07.930Z,18.2
2023-05-19T06:51:22.162Z,18.4
2023-05-19T06:52:36.465Z,18.5
2023-05-19T06:53:50.696Z,18.6
2023-05-19T06:55:04.925Z,18.7
2023-05-19T06:56:19.153Z,18.4
2023-05-19T06:57:33.502Z,18.5
2023-05-19T06:58:47.806Z,18.6
2023-05-19T07:00:02.036Z,18.6
2023-05-19T07:01:16.271Z,18.4
2023-05-19T07:02:30.490Z,18.3
2023-05-19T07:03:44.725Z,18.4
2023-05-19T07:04:59.016Z,18.5
2023-05-19T07:06:13.256Z,18.3
2023-05-19T07:07:27.486Z,18
2023-05-19T07:08:41.728Z,17.7
2023-05-19T07:09:55.935Z,17.8
2023-05-19T07:11:10.243Z,18
2023-05-19T07:12:24.481Z,18.2
2023-05-19T07:13:38.723Z,18.2
2023-05-19T07:14:52.931Z,18
2023-05-19T07:16:07.159Z,17.9
2023-05-19T07:17:21.462Z,17.9
2023-05-19T07:18:35.714Z,17.9
2023-05-19T07:19:49.932Z,17.6
2023-05-19T07:21:04.170Z,17.6
2023-05-19T07:22:18.381Z,17.7
2023-05-19T07:23:32.678Z,17.6
2023-05-19T07:24:46.929Z,17.7
2023-05-19T07:26:01.156Z,17.9
2023-05-19T07:27:15.382Z,17.9
2023-05-19T07:28:29.612Z,17.9
2023-05-19T07:29:43.916Z,17.9
2023-05-19T07:30:58.141Z,18
2023-05-19T07:32:12.373Z,17.9
2023-05-19T07:33:26.606Z,18
2023-05-19T07:34:40.837Z,18.2
2023-05-19T07:35:55.140Z,18.3
2023-05-19T07:37:09.376Z,18.6
2023-05-19T07:38:23.601Z,19
2023-05-19T07:39:37.814Z,19.2
2023-05-19T07:40:52.042Z,19.4
2023-05-19T07:42:06.341Z,19.3
2023-05-19T07:43:20.639Z,19.3
2023-05-19T07:44:34.941Z,19.2
2023-05-19T07:45:48.222Z,19.2
2023-05-19T07:47:02.534Z,19.3
2023-05-19T07:48:16.776Z,19.4
2023-05-19T07:49:30.989Z,19.4
2023-05-19T07:50:45.230Z,19.1
2023-05-19T07:51:59.455Z,19
2023-05-19T07:53:13.742Z,19.2
2023-05-19T07:54:28.000Z,19.4
2023-05-19T07:55:42.216Z,19.4
2023-05-19T07:56:56.435Z,19.4
2023-05-19T07:58:10.670Z,19
2023-05-19T07:59:24.974Z,19.1
2023-05-19T08:00:39.206Z,19.1
2023-05-19T08:01:53.439Z,19.3
2023-05-19T08:03:07.668Z,19.5
2023-05-19T08:04:21.889Z,19.2
2023-05-19T08:05:36.183Z,19.5
2023-05-19T08:06:50.436Z,19.5
2023-05-19T08:08:04.659Z,19.5
2023-05-19T08:09:18.885Z,19.7
2023-05-19T08:10:33.116Z,19.9
2023-05-19T08:11:47.407Z,20.3
2023-05-19T08:13:01.644Z,20.3
2023-05-19T08:14:15.884Z,20.3
2023-05-19T08:15:30.114Z,20.5
2023-05-19T08:16:44.399Z,19.5
2023-05-19T08:17:58.691Z,18.8
2023-05-19T08:19:12.979Z,18.6
2023-05-19T08:20:26.273Z,20.2
2023-05-19T08:21:40.503Z,19.5
2023-05-19T08:22:54.790Z,19.8
2023-05-19T08:24:09.028Z,19.5
2023-05-19T08:25:23.267Z,20.3
2023-05-19T08:26:37.489Z,21.8
2023-05-19T08:27:51.712Z,22.8
2023-05-19T08:29:06.014Z,23.6
2023-05-19T08:30:20.255Z,24.4
2023-05-19T08:31:34.490Z,25.4
2023-05-19T08:32:48.703Z,25
2023-05-19T08:34:02.925Z,25
2023-05-19T08:35:17.243Z,24.4
2023-05-19T08:36:31.473Z,22.8
2023-05-19T08:37:45.714Z,23.4
2023-05-19T08:38:59.938Z,24.3
2023-05-19T08:40:14.148Z,24.6
2023-05-19T08:41:28.449Z,23.4
2023-05-19T08:42:42.696Z,22.9
2023-05-19T08:43:56.924Z,23.1
2023-05-19T08:45:11.159Z,22.9
2023-05-19T08:46:25.376Z,23.7
2023-05-19T08:47:39.000Z,24.1
2023-05-19T08:48:53.930Z,24.9
2023-05-19T08:50:08.149Z,24.7
2023-05-19T08:51:22.428Z,24.9
2023-05-19T08:52:35.765Z,25
2023-05-19T08:53:50.057Z,23.2
2023-05-19T08:55:03.347Z,22.2
2023-05-19T08:56:17.583Z,22
2023-05-19T08:57:31.883Z,23.1
2023-05-19T08:58:46.117Z,23.7
2023-05-19T09:00:00.336Z,24.4
2023-05-19T09:01:14.570Z,24.1
2023-05-19T09:02:28.806Z,24.6
2023-05-19T09:03:43.097Z,24
2023-05-19T09:04:57.332Z,21.6
2023-05-19T09:06:11.560Z,20.2
2023-05-19T09:07:25.787Z,19.5
2023-05-19T09:08:40.018Z,19.2
2023-05-19T09:09:54.314Z,19.8
2023-05-19T09:11:08.562Z,19.7
2023-05-19T09:12:22.786Z,19.5
2023-05-19T09:13:37.023Z,19.5
2023-05-19T09:14:51.242Z,20.7
2023-05-19T09:16:05.538Z,22.4
2023-05-19T09:17:19.775Z,22.4
2023-05-19T09:18:34.018Z,23.1
2023-05-19T09:19:48.236Z,23.4
2023-05-19T09:21:02.455Z,23.6
2023-05-19T09:22:16.765Z,23.6
2023-05-19T09:23:31.003Z,24
2023-05-19T09:24:45.240Z,24.3
2023-05-19T09:25:59.517Z,24.6
2023-05-19T09:27:12.823Z,25
2023-05-19T09:28:27.054Z,24.1
2023-05-19T09:29:41.275Z,24
2023-05-19T09:30:55.509Z,24.4
2023-05-19T09:32:09.741Z,23.4
2023-05-19T09:33:24.047Z,23.8
2023-05-19T09:34:38.278Z,23.6
2023-05-19T09:35:52.507Z,23.7
2023-05-19T09:37:06.735Z,24.3
2023-05-19T09:38:20.955Z,24.4
2023-05-19T09:39:35.253Z,23.9
2023-05-19T09:40:49.510Z,23.6
2023-05-19T09:42:03.733Z,23.1
2023-05-19T09:44:32.185Z,24.4
2023-05-19T09:45:46.496Z,24.5
2023-05-19T09:47:00.734Z,24.5
2023-05-19T09:48:14.953Z,24.2
2023-05-19T09:49:29.185Z,24.3
2023-05-19T09:50:43.403Z,24.1
2023-05-19T09:51:57.714Z,24.3
2023-05-19T09:53:11.943Z,24.7
2023-05-19T09:54:26.180Z,25
2023-05-19T09:55:40.414Z,24
2023-05-19T09:56:54.623Z,24.4
2023-05-19T09:58:08.989Z,24.9
2023-05-19T09:59:23.287Z,24.1
2023-05-19T10:00:37.569Z,23.2
2023-05-19T10:01:50.864Z,22.6
2023-05-19T10:03:05.152Z,21.7
2023-05-19T10:04:19.406Z,21.6
2023-05-19T10:05:33.619Z,23.3
2023-05-19T10:09:16.392Z,21.9
2023-05-19T10:10:30.625Z,21.9
2023-05-19T10:11:44.842Z,22.2
2023-05-19T10:12:59.082Z,21.5
2023-05-19T10:14:13.300Z,21.9
2023-05-19T10:15:27.599Z,22.8
2023-05-19T10:16:41.837Z,23.9
2023-05-19T10:17:56.077Z,25.2
2023-05-19T10:19:10.291Z,25.3
2023-05-19T10:20:24.530Z,24.1
2023-05-19T10:21:38.825Z,24.7
2023-05-19T10:22:53.075Z,24.5
2023-05-19T10:24:07.293Z,23.9
2023-05-19T10:25:21.527Z,23.8
2023-05-19T10:26:35.746Z,23.6
2023-05-19T10:27:50.045Z,24.5
2023-05-19T10:29:04.286Z,24.6
2023-05-19T10:30:18.518Z,24.8
2023-05-19T10:31:32.744Z,25
2023-05-19T10:32:47.037Z,23.1
2023-05-19T10:34:01.331Z,23.5
2023-05-19T10:35:15.611Z,23.5
2023-05-19T10:36:28.913Z,23.4
2023-05-19T10:37:43.150Z,24
2023-05-19T10:38:57.433Z,24.7
2023-05-19T10:40:11.685Z,24.6
2023-05-19T10:41:25.902Z,24.4
2023-05-19T10:42:40.133Z,24.2
2023-05-19T10:43:54.359Z,24.9
2023-05-19T10:45:08.671Z,24.7
2023-05-19T10:46:22.900Z,25.2
2023-05-19T10:47:37.146Z,25.4
2023-05-19T10:48:51.358Z,24.2
2023-05-19T10:50:05.600Z,23.2
2023-05-19T10:51:19.896Z,23.5
2023-05-19T10:52:34.131Z,24.2
2023-05-19T10:53:48.356Z,24.4
2023-05-19T10:55:02.589Z,24.9
2023-05-19T10:56:16.812Z,25.4
2023-05-19T10:57:31.115Z,25
2023-05-19T10:58:45.368Z,25.2
2023-05-19T10:59:59.582Z,25.2
2023-05-19T11:01:13.813Z,25
2023-05-19T11:02:28.043Z,25
2023-05-19T11:03:42.335Z,24
2023-05-19T11:04:56.590Z,23.2
2023-05-19T11:06:10.953Z,22.9
2023-05-19T11:07:25.179Z,23.1
2023-05-19T11:08:39.540Z,21.4
2023-05-19T11:09:53.836Z,22.1
2023-05-19T11:11:08.087Z,21.5
2023-05-19T11:12:22.316Z,21.8
2023-05-19T11:13:36.526Z,23
2023-05-19T11:14:50.767Z,24
2023-05-19T11:16:05.068Z,25.1
2023-05-19T11:17:19.295Z,24.6
2023-05-19T11:18:33.000Z,23.7
2023-05-19T11:19:47.755Z,23.3
2023-05-19T11:21:01.989Z,23.3
2023-05-19T11:22:16.275Z,23.1
2023-05-19T11:23:30.521Z,23.1
2023-05-19T11:24:44.746Z,22.8
2023-05-19T11:25:58.984Z,22.4
2023-05-19T11:27:13.199Z,22.2
2023-05-19T11:28:27.499Z,22.4
2023-05-19T11:29:41.757Z,22.2
2023-05-19T11:30:55.983Z,22
2023-05-19T11:32:10.211Z,22.5
2023-05-19T11:33:24.569Z,23.8
2023-05-19T11:34:38.865Z,23.2
2023-05-19T11:35:53.124Z,22.9
2023-05-19T11:37:07.340Z,24.1
2023-05-19T11:38:21.576Z,24.5
2023-05-19T11:39:35.795Z,24.5
2023-05-19T11:40:50.098Z,23.6
2023-05-19T11:42:04.335Z,23.7
2023-05-19T11:43:18.687Z,24.2
2023-05-19T11:44:32.916Z,23.8
2023-05-19T11:45:47.131Z,23.1
2023-05-19T11:47:01.430Z,22.9
2023-05-19T11:48:15.679Z,22.9
2023-05-19T11:49:29.914Z,22.9
2023-05-19T11:50:44.136Z,23.1
2023-05-19T11:51:58.367Z,23.7
2023-05-19T11:53:12.667Z,23.8
2023-05-19T11:54:26.906Z,22.7
2023-05-19T11:55:41.138Z,21.8
2023-05-19T11:56:55.352Z,21.3
2023-05-19T11:58:09.724Z,21
2023-05-19T11:59:24.022Z,21
2023-05-19T12:00:38.273Z,21.2
2023-05-19T12:01:52.506Z,22.4
2023-05-19T12:03:06.733Z,22.4
2023-05-19T12:04:20.941Z,21.7
2023-05-19T12:05:35.261Z,21.3
2023-05-19T12:06:49.503Z,21.1
2023-05-19T12:08:03.846Z,20.8
2023-05-19T12:09:18.066Z,22.5
2023-05-19T12:10:32.287Z,22.9
2023-05-19T12:11:46.607Z,23.5
2023-05-19T12:13:00.833Z,24.3
2023-05-19T12:14:15.073Z,24.7
2023-05-19T12:15:29.294Z,25.4
2023-05-19T12:16:43.527Z,26
2023-05-19T12:17:57.825Z,26.7
2023-05-19T12:19:12.068Z,27.2
2023-05-19T12:21:40.520Z,27
2023-05-19T12:22:54.738Z,25.3
2023-05-19T12:24:09.043Z,24.5
2023-05-19T12:25:23.285Z,23.8
2023-05-19T12:26:37.521Z,23.9
2023-05-19T12:27:51.730Z,23.3
2023-05-19T12:29:06.107Z,22.4
2023-05-19T12:30:20.417Z,22.2
2023-05-19T12:31:34.659Z,22
2023-05-19T12:32:48.995Z,21.9
2023-05-19T12:34:03.233Z,21.7
2023-05-19T12:35:17.453Z,21.5
2023-05-19T12:36:31.763Z,21.7
2023-05-19T12:37:45.991Z,22.6
2023-05-19T12:39:00.232Z,24
2023-05-19T12:40:14.442Z,24.3
2023-05-19T12:41:28.684Z,23.6
2023-05-19T12:42:42.980Z,22.5
2023-05-19T12:43:57.211Z,22
2023-05-19T12:45:11.454Z,21.8
2023-05-19T12:47:39.904Z,21.2
2023-05-19T12:48:54.206Z,21.2
2023-05-19T12:51:22.664Z,21.7
2023-05-19T12:52:37.039Z,21.6
2023-05-19T12:53:51.267Z,21.5
2023-05-19T12:55:05.554Z,21.9
2023-05-19T12:56:19.805Z,22.5
2023-05-19T12:57:34.038Z,22.6
2023-05-19T12:58:48.267Z,22.1
2023-05-19T13:00:02.481Z,21.9
2023-05-19T13:01:16.779Z,21.3
2023-05-19T13:02:31.020Z,21.6
2023-05-19T13:03:45.257Z,22.3
2023-05-19T13:04:59.629Z,23.6
2023-05-19T13:06:13.853Z,24.3
2023-05-19T13:07:28.149Z,23.7
2023-05-19T13:08:42.391Z,23.8
2023-05-19T13:09:56.623Z,24.3
2023-05-19T13:11:10.841Z,24.1
2023-05-19T13:12:25.062Z,24.1
2023-05-19T13:13:39.377Z,24.1
2023-05-19T13:14:53.608Z,23.7
2023-05-19T13:16:07.849Z,24.2
2023-05-19T13:17:22.074Z,24.8
2023-05-19T13:18:36.289Z,24.9
2023-05-19T13:19:50.599Z,25.2
2023-05-19T13:21:04.843Z,25.5
2023-05-19T13:22:19.053Z,25.1
2023-05-19T13:23:33.294Z,24.5
2023-05-19T13:24:47.512Z,23.6
2023-05-19T13:26:01.824Z,23.2
2023-05-19T13:27:16.069Z,23
2023-05-19T13:28:30.278Z,23.1
2023-05-19T13:29:44.504Z,22.4
2023-05-19T13:30:58.739Z,21.9
2023-05-19T13:32:13.036Z,22.1
2023-05-19T13:33:27.273Z,22.9
2023-05-19T13:34:41.506Z,23.3
2023-05-19T13:35:55.795Z,23.8
2023-05-19T13:37:09.136Z,24.3
2023-05-19T13:38:23.410Z,24.8
2023-05-19T13:39:37.688Z,24.4
2023-05-19T13:40:51.986Z,25.2
2023-05-19T13:42:05.278Z,25.6
2023-05-19T13:43:19.515Z,25.9
2023-05-19T13:44:33.739Z,25.2
2023-05-19T13:45:47.963Z,23.6
2023-05-19T13:47:02.191Z,22.7
2023-05-19T13:48:16.493Z,21.9
2023-05-19T13:49:30.748Z,21.2
2023-05-19T13:50:44.962Z,20.9
2023-05-19T13:51:59.199Z,21.4
2023-05-19T13:53:13.427Z,22.1
2023-05-19T13:54:27.711Z,22.6
2023-05-19T13:55:41.964Z,22.8
2023-05-19T13:56:56.187Z,23.6
2023-05-19T13:58:10.418Z,24.7
2023-05-19T13:59:24.766Z,24.3
2023-05-19T14:00:39.073Z,23.6
2023-05-19T14:01:53.302Z,23.8
2023-05-19T14:03:07.536Z,23.8
2023-05-19T14:04:21.753Z,22.8
2023-05-19T14:05:35.992Z,22.1
2023-05-19T14:06:50.293Z,21.9
2023-05-19T14:08:04.530Z,21.2
2023-05-19T14:09:18.749Z,20.8
2023-05-19T14:10:33.125Z,20.7
2023-05-19T14:11:47.361Z,21.1
2023-05-19T14:13:01.648Z,22.2
2023-05-19T14:14:15.900Z,23.2
2023-05-19T14:15:30.116Z,23.7
2023-05-19T14:16:44.354Z,24.1
2023-05-19T14:17:58.574Z,24.5
2023-05-19T14:19:12.881Z,24.4
2023-05-19T14:20:27.116Z,24.5
2023-05-19T14:21:41.334Z,24.6
2023-05-19T14:22:55.567Z,24.8
2023-05-19T14:24:09.790Z,24.2
2023-05-19T14:25:24.105Z,22.9
2023-05-19T14:26:38.333Z,23
2023-05-19T14:27:52.563Z,23.2
2023-05-19T14:29:06.786Z,23.3
2023-05-19T14:30:21.025Z,23
2023-05-19T14:31:35.326Z,22.6
2023-05-19T14:32:49.553Z,22.4
2023-05-19T14:34:03.909Z,21.9
2023-05-19T14:35:18.144Z,21.2
2023-05-19T14:36:32.501Z,21
2023-05-19T14:37:46.811Z,20.9
2023-05-19T14:39:01.000Z,20.9
2023-05-19T14:40:15.268Z,20.8
2023-05-19T14:41:29.501Z,21.2
2023-05-19T14:42:43.725Z,22.3
2023-05-19T14:43:58.021Z,22.8
2023-05-19T14:45:12.265Z,23.4
2023-05-19T14:46:26.619Z,23.7
2023-05-19T14:47:40.849Z,23.6
2023-05-19T14:48:55.073Z,23.8
2023-05-19T14:50:09.364Z,23.2
2023-05-19T14:51:23.618Z,23.5
2023-05-19T14:52:37.842Z,23.7
2023-05-19T14:53:52.076Z,24
2023-05-19T14:55:06.302Z,24.4
2023-05-19T14:56:20.594Z,24.5
2023-05-19T14:57:34.837Z,25
2023-05-19T14:58:49.074Z,25
2023-05-19T15:00:03.282Z,24.6
2023-05-19T15:01:17.515Z,23.3
2023-05-19T15:02:31.827Z,22.5
2023-05-19T15:03:46.062Z,21.7
2023-05-19T15:05:00.282Z,21.2
2023-05-19T15:06:14.521Z,20.7
2023-05-19T15:07:28.730Z,20.8
2023-05-19T15:08:43.037Z,20.6
2023-05-19T15:09:57.269Z,20.5
2023-05-19T15:11:11.498Z,20.5
2023-05-19T15:12:25.741Z,21.3
2023-05-19T15:13:40.105Z,21.9
2023-05-19T15:14:54.394Z,22.2
2023-05-19T15:16:08.652Z,22.7
2023-05-19T15:17:22.865Z,22.8
2023-05-19T15:18:37.099Z,23.5
2023-05-19T15:19:51.314Z,24
2023-05-19T15:21:05.619Z,23.6
2023-05-19T15:22:19.873Z,23.6
2023-05-19T15:23:34.086Z,23
2023-05-19T15:24:48.315Z,23.1
2023-05-19T15:26:02.550Z,23.1
2023-05-19T15:27:16.851Z,22.3
2023-05-19T15:28:31.086Z,22.1
2023-05-19T15:29:45.308Z,22.4
2023-05-19T15:30:59.538Z,22.8
2023-05-19T15:32:13.761Z,22.8
2023-05-19T15:33:28.073Z,22.1
2023-05-19T15:35:56.540Z,21.4
2023-05-19T15:37:10.758Z,21
2023-05-19T15:38:24.979Z,20.9
2023-05-19T15:39:39.286Z,21
2023-05-19T15:40:53.525Z,20.9
2023-05-19T15:42:07.913Z,21.6
2023-05-19T15:43:22.281Z,22.5
2023-05-19T15:44:36.506Z,23
2023-05-19T15:45:50.802Z,22.9
2023-05-19T15:47:05.034Z,23.3
2023-05-19T15:48:19.382Z,23.1
2023-05-19T15:49:33.614Z,22.7
2023-05-19T15:50:47.836Z,22.4
2023-05-19T15:52:02.133Z,23.1
2023-05-19T15:53:16.375Z,23.3
2023-05-19T15:54:30.608Z,23.2
2023-05-19T15:55:44.832Z,23.5
2023-05-19T15:56:59.072Z,23.6
2023-05-19T15:58:13.356Z,23.3
2023-05-19T15:59:27.603Z,22.9
2023-05-19T16:00:41.820Z,22.6
2023-05-19T16:01:56.054Z,22.6
2023-05-19T16:03:10.292Z,22.7
2023-05-19T16:04:24.575Z,22.7
2023-05-19T16:05:38.828Z,23.1
2023-05-19T16:06:53.057Z,22.1
2023-05-19T16:08:07.281Z,21.2
2023-05-19T16:09:21.497Z,20.7
2023-05-19T16:10:35.796Z,20.4
2023-05-19T16:11:50.039Z,20.4
2023-05-19T16:13:04.262Z,21
2023-05-19T16:14:18.502Z,21.5
2023-05-19T16:15:32.725Z,21.6
2023-05-19T16:16:47.021Z,21.9
2023-05-19T16:18:01.274Z,22.1
2023-05-19T16:19:15.490Z,22.5
2023-05-19T16:20:29.863Z,22.7
2023-05-19T16:21:44.096Z,23.2
2023-05-19T16:22:58.382Z,22.7
2023-05-19T16:24:12.632Z,22.6
2023-05-19T16:25:27.001Z,22.4
2023-05-19T16:26:41.219Z,21.8
2023-05-19T16:27:55.451Z,21.6
2023-05-19T16:29:09.748Z,21.8
2023-05-19T16:30:23.987Z,21.7
2023-05-19T16:31:38.210Z,21.6
2023-05-19T16:32:52.559Z,21.5
2023-05-19T16:34:06.803Z,21.3
2023-05-19T16:35:21.103Z,20.9
2023-05-19T16:36:35.328Z,20.8
2023-05-19T16:37:49.573Z,20.8
2023-05-19T16:39:03.783Z,20.8
2023-05-19T16:40:18.013Z,20.8
2023-05-19T16:41:32.307Z,21
2023-05-19T16:42:46.568Z,20.8
2023-05-19T16:44:00.778Z,20.8
2023-05-19T16:45:15.000Z,20.7
2023-05-19T16:48:57.771Z,20.2
2023-05-19T16:50:11.999Z,20.2
2023-05-19T16:52:40.585Z,20.2
2023-05-19T16:53:54.890Z,20.3
2023-05-19T16:55:09.119Z,20.2
2023-05-19T16:56:23.342Z,20.3
2023-05-19T16:57:37.720Z,20.5
2023-05-19T16:58:51.943Z,20.5